Latest Observation

65 Stations

Daily Data | America/Los_Angeles
as of 10/7/22 5:55 AM PDT
Station Date Daily Max Temp (°F) Daily Min Temp (°F) Max RH (%) Min RH (%) Wind Spd (mph) Wind Dir (°) Daily Max Wind (mph) Max Wind Dir (°) Time of Max Wind Daily Rain (In) Weekly Precip (In) Seasonal Rainfall (In) Soil Moist (%) Fuel Temp (°F) Fuel Moisture (%) MinBV Day (V)
Hobart Mills 10/6/22 77.2   1.3 34.5   0.1 74   7 10   8 1.6   0.1 W | 261 14.3   1.4 SW | 236 1353 0.00 0.00 1.80 13.9   0.0 - - 12.4   0.0
Prosser Dam 10/6/22 77.8   1.3 30.5   0.2 94   2 12   4 2.2   0.2 W | 268 16.5   2.5 WNW | 298 1358 0.00 0.00 1.16 5.8   0.0 52.2   1.3 6   1 12.7   0.0
West Incline Village 10/6/22 70.2   0.5 50.8   0.6 63   4 17   2 0.0   0.0 N | 0 0.0   0.0 NE | 50 0101 0.00 0.00 5.05 11.1   0.1 - - 12.5   0.0
Incline Village (Fairview Blvd) 10/6/22 72.1   0.1 51.6   0.0 73   3 12   4 1.0   0.1 NNE | 30 8.2   1.5 S | 179 1618 0.00 0.00 2.09 12.6   0.5 - - 12.3   0.0
Incline Village (Diamond Peak) 10/6/22 68.6   1.4 52.8   1.2 59   15 13   1 3.9   2.5 NNW | 344 11.0   3.2 SSE | 150 1408 0.00 0.00 1.82 - - - 12.5   0.0
Incline Village (Mill Creek) 10/6/22 72.8   0.9 50.6   0.5 72   5 13   1 1.0   0.2 ESE | 107 8.3   2.4 W | 269 1524 0.00 0.00 1.98 2.8   0.0 - - 12.5   0.0
Incline Village (Lakeshore Blvd) 10/6/22 70.9   0.2 42.2   1.1 72   1 17   6 0.3   0.0 SSW | 204 3.7   4.6 S | 173 1206 0.00 0.00 4.11 - - - 12.4   0.0
Glenbrook 10/6/22 72.6   0.8 46.0   1.0 65   10 18   3 1.3   1.5 S | 178 5.3   10.6 WSW | 254 1150 0.00 0.00 2.93 35.3   0.4 - - 12.6   0.0
Zephyr Cove 10/6/22 72.7   0.8 48.4   1.1 57   6 17   5 0.4   0.1 WNW | 301 7.0   0.1 SSE | 147 1509 0.00 0.00 1.32 6.2   0.3 - - 12.4   0.0
Kingsbury Grade 10/6/22 73.0   0.1 45.7   0.7 44   6 17   4 1.6   0.8 NNW | 335 10.3   2.9 SW | 233 1442 0.00 0.00 5.02 2.7   0.0 - - 12.6   0.0
South Daggett Pass (Ridge) 10/6/22 68.8   3.5 55.0   2.8 35   3 18   6 2.2   0.7 SE | 140 12.8   2.1 WNW | 302 1702 0.00 0.00 1.79 2.6   0.1 - - 12.7   0.0
Palomino Valley 10/6/22 82.1   1.6 37.8   1.3 52   0 11   3 2.7   0.1 WNW | 296 14.4   4.3 NNW | 344 1512 0.00 0.00 0.95 3.9   0.0 58.8   0.7 3   0 12.6   0.0
East Cold Springs 10/6/22 78.1   1.3 53.5   1.2 34   4 16   0 4.3   0.2 WNW | 284 13.2   3.4 E | 100 1302 0.00 0.00 1.56 1.5   0.0 59.8   1.2 3   0 12.7   0.0
Peavine 10/6/22 74.3   1.7 54.7   2.2 35   1 17   0 4.7   0.7 S | 180 13.4   0.8 NNE | 26 1455 0.00 0.00 1.41 8.9   0.0 - - 12.6   0.0
West Verdi Peak 10/6/22 74.9   1.9 52.5   1.4 34   6 17   1 2.0   0.3 ENE | 57 14.5   0.1 SE | 125 1308 0.00 0.00 1.38 4.9   0.0 60.8   1.3 7   0 12.7   0.0
West Verdi 10/6/22 78.5   1.4 45.4   1.1 54   4 16   2 2.3   0.1 E | 96 12.0   0.6 W | 273 1801 0.00 0.00 1.28 16.3   0.0 - - 12.6   0.0
South Verdi 9/22/22 62.6   8.0 38.7   3.3 89   7 37   11 5.4   2.3 ESE | 110 18.8   8.7 NE | 47 1531 0.01 0.09 1.09 15.5   1.9 54.1   6.4 19   16 12.7   0.0
Northwest Reno 10/6/22 80.0   2.1 53.6   0.1 39   1 15   1 3.6   0.3 N | 0 19.2   4.6 NNW | 336 1900 0.00 0.00 1.36 22.2   0.0 - - 12.6   0.0
North Lawton 10/6/22 78.8   1.8 49.9   2.2 45   8 15   0 5.5   0.5 WNW | 285 13.0   1.9 WNW | 282 2354 0.00 0.00 1.11 35.6   0.0 66.3   0.9 3   0 12.6   0.0
West Reno (Mogul) 10/6/22 77.8   1.8 48.7   0.2 50   4 16   2 3.8   0.1 W | 260 13.2   0.4 ENE | 64 1341 0.00 0.00 4.87 22.6   0.0 - - 12.6   0.0
Caughlin (Hunter Lake Trail) 10/6/22 78.0   2.0 55.6   0.7 41   4 16   2 0.0   0.0 N | 0 0.0   0.0 S | 188 0101 0.00 0.00 0.34 14.9   0.0 - - 12.6   0.0
ArrowCreek 10/6/22 78.2   2.1 50.5   1.2 42   2 15   3 2.7   0.0 SW | 223 14.5   1.9 W | 281 1911 0.00 0.00 4.78 10.9   0.0 - - 12.5   0.0
Tracy 10/6/22 82.6   2.1 47.4   0.8 51   9 13   1 2.8   0.1 ENE | 71 13.4   0.4 ENE | 61 1400 0.00 0.00 1.04 6.5   0.0 65.9   0.8 2   0 12.7   0.0
Virginia Highlands 10/6/22 76.1   2.8 55.5   0.2 30   2 14   4 2.3   0.7 SE | 136 14.2   1.2 ESE | 123 1222 0.00 0.00 1.74 6.8   0.0 - - 12.6   0.0
Virginia City 10/6/22 74.1   2.1 58.7   1.3 25   3 16   1 2.5   0.2 NW | 310 13.7   1.1 ESE | 108 1314 0.00 0.00 0.03 3.6   0.0 67.3   1.4 - 12.7   0.0
Six Mile Canyon 10/6/22 82.0   1.8 50.8   0.3 36   3 14   1 2.7   0.4 NE | 39 16.0   4.0 E | 97 1252 0.00 0.00 1.84 8.8   0.0 65.3   0.4 - 12.7   0.0
Mt Rose Highway 10/6/22 69.6   2.2 52.1   0.5 34   2 20   2 2.6   0.1 SW | 226 9.3   0.8 NE | 45 1104 0.00 0.00 - 6.7   0.0 - - 12.6   0.0
Pleasant Valley 10/6/22 80.9   2.0 45.3   0.4 56   3 14   2 2.7   0.0 WSW | 240 11.0   5.0 ENE | 77 1422 0.00 0.00 1.26 2.6   0.0 63.9   0.2 5   0 12.7   0.0
New Washoe City 10/6/22 80.3   2.1 47.1   0.1 39   4 11   5 3.8   0.5 NE | 34 12.8   1.1 SW | 230 1402 0.00 0.00 1.25 3.1   0.0 - - 12.6   0.0
Franktown Creek 10/6/22 79.8   1.9 42.7   3.1 62   8 13   4 1.1   0.0 WSW | 247 12.9   2.2 S | 189 1421 0.00 0.00 4.08 3.6   0.0 - - 12.7   0.0
Musgrove Creek 10/6/22 77.2   2.3 55.5   1.1 37   4 13   6 1.7   0.2 SW | 215 12.9   3.7 NE | 54 1253 0.00 0.00 4.91 10.3   0.0 - - 12.6   0.0
East Carson 10/6/22 81.0   1.5 43.3   0.2 53   4 13   1 3.4   0.4 ENE | 78 16.0   1.5 E | 93 1519 0.00 0.00 0.46 1.5   0.0 - 3   0 12.7   0.0
Kings Canyon 10/6/22 79.0   2.1 46.3   0.0 44   4 13   3 3.4   0.0 SSE | 164 12.0   0.9 NE | 50 1402 0.00 0.00 0.54 2.9   0.0 62.4   0.5 5   0 12.7   0.0
Carson City (Voltaire Canyon) 10/6/22 79.2   2.5 53.5   0.9 39   2 14   3 4.8   1.5 SW | 224 15.8   2.7 NNE | 21 1421 0.00 0.00 0.29 2.1   0.0 - - 12.7   0.0
Jacks Valley 10/6/22 80.4   3.3 49.0   0.9 39   5 12   4 3.2   0.3 NNW | 348 15.6   2.6 NNW | 328 1906 0.00 0.00 0.75 6.7   0.0 65.8   1.7 3   0 12.7   0.0
Genoa 10/6/22 81.3   2.0 44.5   0.4 51   12 15   2 0.6   0.0 NW | 321 9.8   3.1 WNW | 300 1851 0.00 0.00 4.25 4.4   0.0 - - 12.4   0.0
South Genoa (Walleys Hot Springs) 10/6/22 81.7   1.5 37.0   0.6 88   0 14   3 2.3   0.1 NW | 315 22.7   9.8 W | 277 1832 0.00 0.00 3.83 4.5   0.0 - - 12.6   0.0
SW Gardnerville (HWY 88) 10/6/22 80.7   1.9 36.9   0.4 71   5 15   3 3.1   0.1 NNW | 337 14.3   3.8 N | 7 1916 0.00 0.00 2.97 2.0   0.0 - - 12.5   0.0
Ruhenstroth 10/6/22 81.1   1.8 43.5   0.4 47   3 13   3 2.4   0.2 WNW | 288 14.3   0.7 WNW | 298 1549 0.00 0.00 0.96 7.7   0.0 62.3   0.5 3   0 12.7   0.0
Double Spring 10/6/22 77.3   1.2 37.3   0.1 53   2 13   3 2.8   0.4 W | 268 16.9   0.6 NW | 311 1542 0.00 0.00 1.34 35.3   0.0 - 2   0 12.6   0.0
North Topaz Lake 10/6/22 78.1   1.7 53.9   1.3 35   1 16   1 3.5   0.0 NNE | 13 16.8   0.9 E | 100 1420 0.00 0.00 3.15 - - - 12.7   0.0
Wild Oat Mountain 10/6/22 76.1   1.9 54.4   0.6 31   2 15   2 3.6   0.5 NNE | 31 17.5   0.6 ENE | 62 1353 0.00 0.00 1.66 17.9   0.0 65.0   1.0 2   0 12.7   0.0
Smith Valley 10/6/22 80.2   2.5 46.9   1.3 42   6 15   2 3.4   0.2 NNW | 330 16.9   0.5 WSW | 247 2133 0.00 0.00 1.78 2.9   0.0 63.6   0.9 2   0 12.7   0.0
Pine Grove Mountain 10/6/22 65.8   2.0 54.0   1.5 28   1 17   5 3.9   0.4 N | 358 13.9   0.6 NNE | 29 1407 0.00 0.00 2.24 2.4   0.0 55.0   1.2 4   1 12.7   0.0
Paradise Hill 10/6/22 80.9   1.4 40.9   1.7 52   3 13   2 3.3   0.3 NE | 45 25.6   8.2 SSE | 158 1458 0.00 0.00 1.34 7.0   0.0 66.4   0.7 2   0 12.7   0.0
Winnemucca 10/6/22 80.9   1.7 42.9   0.8 48   3 13   1 5.2   0.5 NE | 41 19.0   2.6 N | 2 1146 0.00 0.00 1.88 5.0   0.0 63.1   0.1 2   0 12.7   0.0
NE Elko 10/6/22 77.3   0.1 31.5   0.8 63   0 10   5 2.4   0.2 ENE | 77 11.3   1.7 NE | 56 1510 0.00 0.00 1.29 4.2   0.0 56.7   0.1 1   0 12.6   0.0
North Elko 10/6/22 75.5   1.1 46.4   1.2 48   4 13   0 3.1   1.3 NE | 36 12.4   4.5 ENE | 57 1514 0.00 0.00 0.02 14.6   0.0 61.4   0.5 7   0 12.6   0.0
South Elko 10/6/22 73.3   0.1 50.0   0.2 42   6 13   1 4.1   0.2 ENE | 59 13.8   14.3 ENE | 75 0024 0.00 0.00 0.03 5.9   0.0 62.5   0.9 0   0 12.7   0.0
Lamoille 10/6/22 73.6   0.7 43.0   0.5 56   4 16   1 4.2   0.5 SSE | 168 11.4   4.8 SSE | 166 2027 0.00 0.00 3.17 8.3   0.2 57.3   0.9 3   0 12.6   0.0
Reid Gardner Sub 10/6/22 93.1   0.2 57.8   0.7 48   12 13   1 2.3   0.3 W | 274 23.2   12.0 NE | 49 1310 0.00 0.00 0.51 - 75.3   0.1 3   1 12.7   0.0
Corn Creek 10/6/22 86.4   0.5 65.4   0.7 29   4 16   2 4.3   0.3 S | 183 17.6   1.5 ESE | 118 1213 0.00 0.00 0.61 3.0   0.0 77.8   0.6 - 12.8   0.0
Lucky Strike 10/6/22 75.1   0.6 63.6   0.5 28   4 17   3 6.2   0.8 S | 176 17.4   1.0 ESE | 106 1132 0.00 0.00 2.08 3.1   0.0 69.5   0.7 3   0 12.7   0.0
Lower Angel Peak 10/6/22 70.3   0.6 51.9   0.5 42   1 16   7 4.4   0.1 SW | 233 15.9   2.1 N | 7 1505 0.00 0.00 2.31 2.5   0.0 63.3   0.2 3   0 12.7   0.0
Angel Peak 10/6/22 60.8   1.7 51.4   0.4 50   6 22   7 4.2   1.5 ENE | 71 13.9   5.2 E | 94 2245 0.00 0.00 6.91 - -1.4   0.0 - 12.6   0.0
Upper Kyle Canyon 10/6/22 64.4   0.6 48.0   0.4 45   4 23   6 4.2   0.1 NNW | 342 16.8   1.2 SE | 130 1210 0.00 0.00 11.60 13.5   0.1 56.4   0.2 6   0 12.7   0.0
Mt Charleston 10/6/22 63.4   0.0 50.6   0.2 45   5 21   10 2.1   0.1 W | 260 18.1   4.5 ESE | 102 1151 0.00 0.00 14.36 0.0   0.0 - - 12.7   0.0
Mid Kyle Canyon 10/6/22 71.7   0.0 53.4   0.5 40   1 15   8 8.6   0.4 NW | 314 23.6   4.5 E | 90 1423 0.00 0.00 5.01 3.8   0.0 64.5   0.7 4   0 12.8   0.0
Blue Diamond 10/6/22 83.7   1.0 54.1   1.6 44   7 17   0 3.2   0.3 W | 280 16.4   1.9 ESE | 107 1241 0.00 0.00 1.90 0.7   0.0 72.0   1.0 3   1 12.7   0.0
Artesian Sub 10/6/22 92.7   0.7 67.6   0.2 38   4 13   0 1.8   0.2 NNW | 344 14.0   1.7 NE | 38 1526 0.00 0.00 1.29 9.2   0.0 79.9   1.0 0   0 12.7   0.0
North Henderson 10/6/22 93.5   0.3 67.6   0.7 42   7 13   0 1.9   0.3 NW | 308 11.6   2.0 NW | 310 1521 0.00 0.00 4.55 - - - 12.6   0.0
Sandy Valley 10/6/22 89.3   1.5 63.8   0.8 32   5 15   1 7.1   3.8 E | 88 26.2   8.8 ESE | 104 1452 0.00 0.00 2.53 9.3   0.1 80.0   0.9 2   0 12.7   0.0
Searchlight 10/6/22 85.0   1.2 61.6   1.6 38   6 14   1 6.0   0.5 N | 5 20.2   2.2 N | 0 1555 0.00 0.24 3.15 3.8   0.0 76.0   1.0 3   1 12.8   0.0
Laughlin 10/6/22 99.2   0.9 73.0   0.3 41   8 13   1 4.8   0.7 NNW | 336 22.5   0.9 NNW | 341 1716 0.00 0.00 1.62 4.0   0.0 - - 12.6   0.0
Max   99.2 73.0 94 23 8.6 - 26.2 - - 0.00 - 14.36 35.6 80.0 7 12.8
Avg   - - - - 3.1 - - - - - - - 8.3 63.0 3 -
Min   60.8 30.5 25 10 0.0 - 0.0 - - 0.00 - 0.02 0.0 -1.4 0 12.3